La rose des vents
Donnes mto: Semaine 15/10/07 - 21/10/07 (S 42)
Date Horaire Temp. E. Hum. E. P.atmo. Pluie Vent 1mn Direction Ensoleilleme Ev.Tr. Solaire P. de rose Temp au vent Rafales
15/10/2007 00:00 16,5 C 74 % 1020,5 hPa 0,0 l/m 0,8 km/h (0 Bft) O-NO 0,00 h 0,025 mm 0 W/m 11,9 C 16,5 C 1,8 km/h (1 Bft)
15/10/2007 01:00 16,3 C 74 % 1020,4 hPa 0,0 l/m 1,4 km/h (1 Bft) O 0,00 h 0,025 mm 0 W/m 11,7 C 16,3 C 2,3 km/h (1 Bft)
15/10/2007 02:00 15,2 C 76 % 1020,2 hPa 0,0 l/m 0,2 km/h (0 Bft) O 0,00 h 0,025 mm 0 W/m 11,0 C 15,2 C 0,5 km/h (0 Bft)
15/10/2007 03:00 14,5 C 81 % 1019,9 hPa 0,0 l/m 0,3 km/h (0 Bft) E-NE 0,00 h 0,025 mm 0 W/m 11,2 C 14,5 C 0,6 km/h (0 Bft)
15/10/2007 04:00 14,6 C 82 % 1019,9 hPa 0,0 l/m 5,7 km/h (1 Bft) O 0,00 h 0,025 mm 0 W/m 11,6 C 14,6 C 7,1 km/h (2 Bft)
15/10/2007 05:00 14,5 C 82 % 1019,9 hPa 0,0 l/m 6,9 km/h (2 Bft) O 0,00 h 0,025 mm 0 W/m 11,5 C 14,5 C 8,8 km/h (2 Bft)
15/10/2007 06:00 13,5 C 83 % 1019,8 hPa 0,0 l/m 6,6 km/h (2 Bft) O-NO 0,00 h 0,025 mm 0 W/m 10,6 C 13,5 C 8,4 km/h (2 Bft)
15/10/2007 07:00 13,4 C 82 % 1019,9 hPa 0,0 l/m 8,3 km/h (2 Bft) O-NO 0,03 h 0,025 mm 8 W/m 10,3 C 13,4 C 10,2 km/h (2 Bft)
15/10/2007 08:00 13,4 C 80 % 1020,3 hPa 0,0 l/m 5,7 km/h (1 Bft) O-NO 0,13 h 0,025 mm 58 W/m 10,1 C 13,4 C 7,8 km/h (2 Bft)
15/10/2007 09:00 15,9 C 75 % 1020,8 hPa 0,0 l/m 4,4 km/h (1 Bft) O-NO 1,00 h 0,051 mm 195 W/m 11,4 C 15,9 C 6,3 km/h (2 Bft)
15/10/2007 10:00 17,8 C 72 % 1021,0 hPa 0,0 l/m 11,8 km/h (2 Bft) SO 1,00 h 0,127 mm 343 W/m 12,7 C 17,8 C 16,3 km/h (3 Bft)
15/10/2007 11:00 19,3 C 65 % 1020,9 hPa 0,0 l/m 7,4 km/h (2 Bft) S-SO 1,00 h 0,254 mm 467 W/m 12,6 C 19,3 C 11,0 km/h (2 Bft)
15/10/2007 12:00 20,7 C 61 % 1020,9 hPa 0,0 l/m 7,7 km/h (2 Bft) S 1,00 h 0,305 mm 542 W/m 13,0 C 20,7 C 11,8 km/h (2 Bft)
15/10/2007 13:00 20,6 C 65 % 1020,7 hPa 0,0 l/m 7,9 km/h (2 Bft) S 1,00 h 0,356 mm 552 W/m 13,8 C 20,6 C 13,3 km/h (3 Bft)
15/10/2007 14:00 20,4 C 66 % 1020,7 hPa 0,0 l/m 6,6 km/h (2 Bft) S 0,98 h 0,356 mm 522 W/m 13,7 C 20,4 C 11,3 km/h (2 Bft)
15/10/2007 15:00 20,2 C 65 % 1020,7 hPa 0,0 l/m 7,1 km/h (2 Bft) E 0,70 h 0,330 mm 383 W/m 13,3 C 20,2 C 10,6 km/h (2 Bft)
15/10/2007 16:00 19,1 C 69 % 1020,4 hPa 0,0 l/m 4,8 km/h (1 Bft) E 0,50 h 0,254 mm 225 W/m 13,2 C 19,1 C 9,3 km/h (2 Bft)
15/10/2007 17:00 18,3 C 70 % 1020,4 hPa 0,0 l/m 3,6 km/h (1 Bft) E 0,77 h 0,152 mm 151 W/m 12,7 C 18,3 C 6,9 km/h (2 Bft)
15/10/2007 18:00 16,8 C 75 % 1020,6 hPa 0,0 l/m 1,4 km/h (1 Bft) E 0,00 h 0,102 mm 28 W/m 12,3 C 16,8 C 3,2 km/h (1 Bft)
15/10/2007 19:00 16,2 C 77 % 1020,8 hPa 0,0 l/m 2,9 km/h (1 Bft) E 0,00 h 0,025 mm 0 W/m 12,2 C 16,2 C 4,7 km/h (1 Bft)
15/10/2007 20:00 15,0 C 78 % 1021,1 hPa 0,0 l/m 0,7 km/h (0 Bft) N 0,00 h 0,025 mm 0 W/m 11,1 C 15,0 C 2,8 km/h (1 Bft)
15/10/2007 21:00 14,5 C 82 % 1021,1 hPa 0,0 l/m 4,8 km/h (1 Bft) N-NO 0,00 h 0,025 mm 0 W/m 11,4 C 14,5 C 7,4 km/h (2 Bft)
15/10/2007 22:00 13,9 C 82 % 1021,3 hPa 0,0 l/m 1,7 km/h (1 Bft) N 0,00 h 0,025 mm 0 W/m 11,0 C 13,9 C 3,8 km/h (1 Bft)
15/10/2007 23:00 13,2 C 85 % 1021,6 hPa 0,0 l/m 2,8 km/h (1 Bft) N-NO 0,00 h 0,025 mm 0 W/m 10,7 C 13,2 C 5,1 km/h (1 Bft)
16/10/2007 00:00 13,0 C 85 % 1021,6 hPa 0,0 l/m 3,0 km/h (1 Bft) N-NO 0,00 h 0,025 mm 0 W/m 10,5 C 13,0 C 5,7 km/h (1 Bft)
16/10/2007 01:00 13,1 C 81 % 1021,6 hPa 0,0 l/m 3,4 km/h (1 Bft) N 0,00 h 0,025 mm 0 W/m 9,9 C 13,1 C 5,3 km/h (1 Bft)
16/10/2007 02:00 12,8 C 81 % 1021,6 hPa 0,0 l/m 2,2 km/h (1 Bft) N 0,00 h 0,025 mm 0 W/m 9,6 C 12,8 C 3,9 km/h (1 Bft)
16/10/2007 03:00 12,5 C 80 % 1021,7 hPa 0,0 l/m 3,1 km/h (1 Bft) N 0,00 h 0,025 mm 0 W/m 9,2 C 12,5 C 5,3 km/h (1 Bft)
16/10/2007 04:00 12,3 C 79 % 1021,6 hPa 0,0 l/m 3,5 km/h (1 Bft) N 0,00 h 0,025 mm 0 W/m 8,7 C 12,3 C 6,3 km/h (2 Bft)
16/10/2007 05:00 12,1 C 81 % 1021,7 hPa 0,0 l/m 3,8 km/h (1 Bft) N 0,00 h 0,025 mm 0 W/m 8,9 C 12,1 C 6,8 km/h (2 Bft)
16/10/2007 06:00 12,0 C 83 % 1021,8 hPa 0,0 l/m 3,5 km/h (1 Bft) N 0,00 h 0,025 mm 0 W/m 9,3 C 12,0 C 6,7 km/h (2 Bft)
16/10/2007 07:00 12,4 C 80 % 1022,0 hPa 0,0 l/m 4,5 km/h (1 Bft) N-NO 0,07 h 0,025 mm 9 W/m 9,0 C 12,4 C 6,9 km/h (2 Bft)
16/10/2007 08:00 13,1 C 75 % 1022,5 hPa 0,0 l/m 3,9 km/h (1 Bft) N-NO 0,72 h 0,025 mm 72 W/m 8,8 C 13,1 C 6,2 km/h (2 Bft)
16/10/2007 09:00 16,4 C 63 % 1022,8 hPa 0,0 l/m 1,8 km/h (1 Bft) N 1,00 h 0,051 mm 213 W/m 9,3 C 16,4 C 4,2 km/h (1 Bft)
16/10/2007 10:00 18,4 C 58 % 1023,1 hPa 0,0 l/m 4,7 km/h (1 Bft) NE 1,00 h 0,127 mm 360 W/m 9,9 C 18,4 C 7,4 km/h (2 Bft)
16/10/2007 11:00 19,6 C 53 % 1023,6 hPa 0,0 l/m 7,2 km/h (2 Bft) E-NE 1,00 h 0,229 mm 480 W/m 9,7 C 19,6 C 10,9 km/h (2 Bft)
16/10/2007 12:00 20,5 C 50 % 1023,7 hPa 0,0 l/m 9,0 km/h (2 Bft) E-NE 1,00 h 0,330 mm 556 W/m 9,7 C 20,5 C 13,9 km/h (3 Bft)
16/10/2007 13:00 20,4 C 54 % 1023,3 hPa 0,0 l/m 6,9 km/h (2 Bft) S-SE 1,00 h 0,381 mm 589 W/m 10,8 C 20,4 C 11,1 km/h (2 Bft)
16/10/2007 14:00 20,5 C 50 % 1022,9 hPa 0,0 l/m 6,1 km/h (2 Bft) E 1,00 h 0,381 mm 541 W/m 9,7 C 20,5 C 10,2 km/h (2 Bft)
16/10/2007 15:00 20,6 C 53 % 1022,6 hPa 0,0 l/m 4,9 km/h (1 Bft) E 1,00 h 0,356 mm 448 W/m 10,6 C 20,6 C 8,6 km/h (2 Bft)
16/10/2007 16:00 20,4 C 58 % 1022,4 hPa 0,0 l/m 4,5 km/h (1 Bft) E 1,00 h 0,305 mm 322 W/m 11,8 C 20,4 C 7,5 km/h (2 Bft)
16/10/2007 17:00 19,0 C 65 % 1022,2 hPa 0,0 l/m 4,3 km/h (1 Bft) E 0,67 h 0,229 mm 130 W/m 12,4 C 19,0 C 6,8 km/h (2 Bft)
16/10/2007 18:00 16,9 C 73 % 1022,3 hPa 0,0 l/m 2,6 km/h (1 Bft) E-NE 0,00 h 0,102 mm 14 W/m 11,9 C 16,9 C 4,3 km/h (1 Bft)
16/10/2007 19:00 15,7 C 82 % 1022,5 hPa 0,0 l/m 2,6 km/h (1 Bft) E-NE 0,00 h 0,025 mm 0 W/m 12,5 C 15,7 C 4,9 km/h (1 Bft)
16/10/2007 20:00 15,0 C 82 % 1022,7 hPa 0,0 l/m 2,1 km/h (1 Bft) NE 0,00 h 0,000 mm 0 W/m 12,0 C 15,0 C 3,9 km/h (1 Bft)
16/10/2007 21:00 14,2 C 82 % 1022,8 hPa 0,0 l/m 4,9 km/h (1 Bft) N-NO 0,00 h 0,025 mm 0 W/m 11,1 C 14,2 C 7,0 km/h (2 Bft)
16/10/2007 22:00 13,9 C 80 % 1023,1 hPa 0,0 l/m 4,8 km/h (1 Bft) N-NO 0,00 h 0,025 mm 0 W/m 10,5 C 13,9 C 7,0 km/h (2 Bft)
16/10/2007 23:00 13,6 C 79 % 1022,9 hPa 0,0 l/m 3,8 km/h (1 Bft) NO 0,00 h 0,025 mm 0 W/m 10,0 C 13,6 C 5,9 km/h (2 Bft)
17/10/2007 00:00 13,0 C 77 % 1022,6 hPa 0,0 l/m 4,2 km/h (1 Bft) O-NO 0,00 h 0,025 mm 0 W/m 9,1 C 13,0 C 6,4 km/h (2 Bft)
17/10/2007 01:00 13,0 C 75 % 1022,3 hPa 0,0 l/m 5,1 km/h (1 Bft) NO 0,00 h 0,025 mm 0 W/m 8,6 C 13,0 C 7,5 km/h (2 Bft)
17/10/2007 02:00 13,3 C 71 % 1022,2 hPa 0,0 l/m 5,1 km/h (1 Bft) NO 0,00 h 0,025 mm 0 W/m 8,1 C 13,3 C 7,3 km/h (2 Bft)
17/10/2007 03:00 13,1 C 68 % 1021,9 hPa 0,0 l/m 4,9 km/h (1 Bft) NO 0,00 h 0,051 mm 0 W/m 7,4 C 13,1 C 7,4 km/h (2 Bft)
17/10/2007 04:00 12,9 C 68 % 1021,5 hPa 0,0 l/m 4,0 km/h (1 Bft) N 0,00 h 0,051 mm 0 W/m 7,1 C 12,9 C 6,3 km/h (2 Bft)
17/10/2007 05:00 12,8 C 69 % 1021,2 hPa 0,0 l/m 3,7 km/h (1 Bft) N-NO 0,00 h 0,051 mm 0 W/m 7,2 C 12,8 C 6,3 km/h (2 Bft)
17/10/2007 06:00 12,7 C 70 % 1021,1 hPa 0,0 l/m 5,1 km/h (1 Bft) N-NO 0,00 h 0,025 mm 0 W/m 7,5 C 12,7 C 7,9 km/h (2 Bft)
17/10/2007 07:00 12,8 C 70 % 1021,2 hPa 0,0 l/m 4,4 km/h (1 Bft) NO 0,03 h 0,051 mm 8 W/m 7,4 C 12,8 C 6,8 km/h (2 Bft)
17/10/2007 08:00 13,4 C 67 % 1021,7 hPa 0,0 l/m 4,5 km/h (1 Bft) NO 0,40 h 0,025 mm 57 W/m 7,5 C 13,4 C 6,8 km/h (2 Bft)
17/10/2007 09:00 14,9 C 63 % 1022,2 hPa 0,0 l/m 3,2 km/h (1 Bft) N-NO 0,55 h 0,051 mm 162 W/m 7,9 C 14,9 C 5,5 km/h (1 Bft)
17/10/2007 10:00 18,0 C 54 % 1022,3 hPa 0,0 l/m 1,8 km/h (1 Bft) N-NE 1,00 h 0,102 mm 318 W/m 8,5 C 18,0 C 3,7 km/h (1 Bft)
17/10/2007 11:00 19,3 C 49 % 1022,2 hPa 0,0 l/m 4,6 km/h (1 Bft) NE 0,95 h 0,203 mm 395 W/m 8,2 C 19,3 C 7,1 km/h (2 Bft)
17/10/2007 12:00 20,3 C 45 % 1021,8 hPa 0,0 l/m 5,3 km/h (1 Bft) E-NE 1,00 h 0,254 mm 527 W/m 8,0 C 20,3 C 8,6 km/h (2 Bft)
17/10/2007 13:00 21,0 C 44 % 1020,9 hPa 0,0 l/m 6,7 km/h (2 Bft) E 1,00 h 0,356 mm 579 W/m 8,4 C 21,0 C 11,3 km/h (2 Bft)
17/10/2007 14:00 20,4 C 48 % 1020,1 hPa 0,0 l/m 8,4 km/h (2 Bft) E 1,00 h 0,406 mm 463 W/m 8,9 C 20,4 C 13,4 km/h (3 Bft)
17/10/2007 15:00 20,4 C 54 % 1019,9 hPa 0,0 l/m 7,0 km/h (2 Bft) E 1,00 h 0,330 mm 434 W/m 10,7 C 20,4 C 11,1 km/h (2 Bft)
17/10/2007 16:00 19,4 C 63 % 1019,6 hPa 0,0 l/m 6,2 km/h (2 Bft) E 0,73 h 0,305 mm 232 W/m 12,1 C 19,4 C 9,0 km/h (2 Bft)
17/10/2007 17:00 18,6 C 68 % 1019,3 hPa 0,0 l/m 3,5 km/h (1 Bft) E 0,55 h 0,178 mm 148 W/m 12,6 C 18,6 C 6,3 km/h (2 Bft)
17/10/2007 18:00 16,8 C 75 % 1019,5 hPa 0,0 l/m 0,7 km/h (0 Bft) E 0,03 h 0,102 mm 25 W/m 12,4 C 16,8 C 2,0 km/h (1 Bft)
17/10/2007 19:00 16,1 C 77 % 1019,6 hPa 0,0 l/m 0,1 km/h (0 Bft) E-SE 0,00 h 0,025 mm 0 W/m 12,1 C 16,1 C 0,2 km/h (0 Bft)
17/10/2007 20:00 15,5 C 80 % 1019,8 hPa 0,0 l/m 2,1 km/h (1 Bft) E-SE 0,00 h 0,000 mm 0 W/m 12,1 C 15,5 C 3,0 km/h (1 Bft)
17/10/2007 21:00 14,8 C 82 % 1019,8 hPa 0,0 l/m 5,1 km/h (1 Bft) O-NO 0,00 h 0,025 mm 0 W/m 11,8 C 14,8 C 6,6 km/h (2 Bft)
17/10/2007 22:00 14,0 C 85 % 1019,6 hPa 0,0 l/m 4,3 km/h (1 Bft) O-NO 0,00 h 0,025 mm 0 W/m 11,5 C 14,0 C 6,5 km/h (2 Bft)
17/10/2007 23:00 13,7 C 85 % 1019,4 hPa 0,0 l/m 4,3 km/h (1 Bft) O-NO 0,00 h 0,025 mm 0 W/m 11,2 C 13,7 C 6,8 km/h (2 Bft)
18/10/2007 00:00 13,4 C 85 % 1019,4 hPa 0,0 l/m 5,5 km/h (1 Bft) O-NO 0,00 h 0,025 mm 0 W/m 10,8 C 13,4 C 7,8 km/h (2 Bft)
18/10/2007 01:00 13,4 C 82 % 1019,3 hPa 0,0 l/m 6,5 km/h (2 Bft) O-NO 0,00 h 0,025 mm 0 W/m 10,5 C 13,4 C 8,7 km/h (2 Bft)
18/10/2007 02:00 14,0 C 80 % 1019,0 hPa 0,0 l/m 7,0 km/h (2 Bft) O-NO 0,00 h 0,025 mm 0 W/m 10,7 C 14,0 C 9,9 km/h (2 Bft)
18/10/2007 03:00 14,6 C 77 % 1018,6 hPa 0,0 l/m 6,1 km/h (2 Bft) O-NO 0,00 h 0,025 mm 0 W/m 10,6 C 14,6 C 8,7 km/h (2 Bft)
18/10/2007 04:00 14,4 C 76 % 1018,1 hPa 0,0 l/m 3,0 km/h (1 Bft) O-NO 0,00 h 0,025 mm 0 W/m 10,2 C 14,4 C 4,8 km/h (1 Bft)
18/10/2007 05:00 14,3 C 76 % 1017,5 hPa 0,0 l/m 4,2 km/h (1 Bft) O-NO 0,00 h 0,025 mm 0 W/m 10,2 C 14,3 C 6,5 km/h (2 Bft)
18/10/2007 06:00 14,4 C 76 % 1017,4 hPa 0,0 l/m 0,5 km/h (0 Bft) NO 0,00 h 0,025 mm 0 W/m 10,2 C 14,4 C 0,7 km/h (0 Bft)
18/10/2007 07:00 14,1 C 76 % 1017,4 hPa 0,0 l/m 1,6 km/h (1 Bft) NO 0,00 h 0,025 mm 6 W/m 10,0 C 14,1 C 2,5 km/h (1 Bft)
18/10/2007 08:00 13,9 C 77 % 1017,3 hPa 0,0 l/m 2,2 km/h (1 Bft) NO 0,00 h 0,000 mm 32 W/m 9,9 C 13,9 C 4,0 km/h (1 Bft)
18/10/2007 09:00 15,5 C 72 % 1017,3 hPa 0,0 l/m 1,6 km/h (1 Bft) N-NO 0,73 h 0,025 mm 198 W/m 10,6 C 15,5 C 3,3 km/h (1 Bft)
18/10/2007 10:00 18,2 C 64 % 1016,9 hPa 0,0 l/m 4,8 km/h (1 Bft) NE 1,00 h 0,127 mm 352 W/m 11,3 C 18,2 C 7,7 km/h (2 Bft)
18/10/2007 11:00 19,4 C 63 % 1016,4 hPa 0,0 l/m 6,9 km/h (2 Bft) E-NE 1,00 h 0,229 mm 474 W/m 12,2 C 19,4 C 10,1 km/h (2 Bft)
18/10/2007 12:00 19,8 C 63 % 1016,3 hPa 0,0 l/m 6,2 km/h (2 Bft) E-SE 1,00 h 0,305 mm 542 W/m 12,5 C 19,8 C 10,4 km/h (2 Bft)
18/10/2007 13:00 20,2 C 63 % 1015,3 hPa 0,0 l/m 6,4 km/h (2 Bft) E 1,00 h 0,356 mm 552 W/m 12,9 C 20,2 C 10,4 km/h (2 Bft)
18/10/2007 14:00 20,4 C 63 % 1014,4 hPa 0,0 l/m 7,0 km/h (2 Bft) E 1,00 h 0,356 mm 500 W/m 13,0 C 20,4 C 10,7 km/h (2 Bft)
18/10/2007 15:00 20,2 C 65 % 1014,0 hPa 0,0 l/m 6,7 km/h (2 Bft) E 1,00 h 0,330 mm 409 W/m 13,4 C 20,2 C 11,0 km/h (2 Bft)
18/10/2007 16:00 19,5 C 70 % 1014,0 hPa 0,0 l/m 5,2 km/h (1 Bft) E 1,00 h 0,279 mm 281 W/m 13,8 C 19,5 C 8,5 km/h (2 Bft)
18/10/2007 17:00 18,2 C 76 % 1014,1 hPa 0,0 l/m 4,5 km/h (1 Bft) E 0,98 h 0,178 mm 133 W/m 13,9 C 18,2 C 7,4 km/h (2 Bft)
18/10/2007 18:00 17,4 C 82 % 1014,6 hPa 0,0 l/m 4,4 km/h (1 Bft) E 0,10 h 0,102 mm 27 W/m 14,3 C 17,4 C 6,9 km/h (2 Bft)
18/10/2007 19:00 17,1 C 86 % 1015,2 hPa 0,0 l/m 8,5 km/h (2 Bft) E-NE 0,00 h 0,025 mm 0 W/m 14,7 C 17,1 C 12,3 km/h (3 Bft)
18/10/2007 20:00 16,9 C 86 % 1016,0 hPa 0,0 l/m 1,3 km/h (1 Bft) NE 0,00 h 0,025 mm 0 W/m 14,5 C 16,9 C 2,5 km/h (1 Bft)
18/10/2007 21:00 16,2 C 86 % 1016,2 hPa 0,0 l/m 0,5 km/h (0 Bft) N-NE 0,00 h 0,025 mm 0 W/m 13,9 C 16,2 C 1,5 km/h (1 Bft)
18/10/2007 22:00 15,6 C 87 % 1016,7 hPa 0,0 l/m 2,4 km/h (1 Bft) O 0,00 h 0,025 mm 0 W/m 13,5 C 15,6 C 3,7 km/h (1 Bft)
18/10/2007 23:00 15,1 C 89 % 1017,1 hPa 0,0 l/m 9,4 km/h (2 Bft) O-NO 0,00 h 0,025 mm 0 W/m 13,2 C 15,1 C 12,6 km/h (3 Bft)
19/10/2007 00:00 15,3 C 84 % 1017,0 hPa 0,0 l/m 14,4 km/h (3 Bft) O-NO 0,00 h 0,025 mm 0 W/m 12,6 C 15,3 C 18,9 km/h (3 Bft)
19/10/2007 01:00 15,0 C 75 % 1017,5 hPa 0,0 l/m 7,2 km/h (2 Bft) O-NO 0,00 h 0,051 mm 0 W/m 10,7 C 15,0 C 9,9 km/h (2 Bft)
19/10/2007 02:00 13,7 C 78 % 1018,1 hPa 0,0 l/m 2,2 km/h (1 Bft) O 0,00 h 0,051 mm 0 W/m 10,0 C 13,7 C 3,8 km/h (1 Bft)
19/10/2007 03:00 14,0 C 82 % 1018,8 hPa 0,0 l/m 4,3 km/h (1 Bft) O-SO 0,00 h 0,025 mm 0 W/m 10,9 C 14,0 C 5,6 km/h (1 Bft)
19/10/2007 04:00 14,4 C 80 % 1018,8 hPa 0,0 l/m 7,3 km/h (2 Bft) O 0,00 h 0,025 mm 0 W/m 10,9 C 14,4 C 10,5 km/h (2 Bft)
19/10/2007 05:00 14,9 C 75 % 1018,9 hPa 0,0 l/m 9,3 km/h (2 Bft) O-SO 0,00 h 0,025 mm 0 W/m 10,4 C 14,9 C 12,9 km/h (3 Bft)
19/10/2007 06:00 14,3 C 74 % 1019,1 hPa 0,0 l/m 15,2 km/h (3 Bft) O-SO 0,00 h 0,051 mm 0 W/m 9,7 C 14,3 C 19,4 km/h (3 Bft)
19/10/2007 07:00 13,4 C 74 % 1019,4 hPa 0,0 l/m 16,8 km/h (3 Bft) O-SO 0,00 h 0,076 mm 8 W/m 8,8 C 13,4 C 21,3 km/h (4 Bft)
19/10/2007 08:00 13,2 C 71 % 1020,1 hPa 0,0 l/m 12,7 km/h (3 Bft) O-SO 0,68 h 0,076 mm 68 W/m 8,1 C 13,2 C 17,2 km/h (3 Bft)
19/10/2007 09:00 15,1 C 59 % 1020,9 hPa 0,0 l/m 11,7 km/h (2 Bft) O-SO 1,00 h 0,076 mm 192 W/m 7,2 C 15,1 C 16,2 km/h (3 Bft)
19/10/2007 10:00 16,2 C 52 % 1021,3 hPa 0,0 l/m 13,7 km/h (3 Bft) SO 0,68 h 0,178 mm 249 W/m 6,3 C 16,2 C 18,3 km/h (3 Bft)
19/10/2007 11:00 17,4 C 43 % 1021,5 hPa 0,0 l/m 14,7 km/h (3 Bft) SO 0,97 h 0,229 mm 469 W/m 4,8 C 17,4 C 19,5 km/h (3 Bft)
19/10/2007 12:00 18,4 C 36 % 1021,0 hPa 0,0 l/m 14,5 km/h (3 Bft) S 1,00 h 0,381 mm 552 W/m 2,9 C 18,4 C 20,6 km/h (4 Bft)
19/10/2007 13:00 18,5 C 38 % 1020,5 hPa 0,0 l/m 9,8 km/h (2 Bft) S-SE 1,00 h 0,432 mm 559 W/m 4,0 C 18,5 C 15,7 km/h (3 Bft)
19/10/2007 14:00 18,7 C 42 % 1019,8 hPa 0,0 l/m 6,7 km/h (2 Bft) E 1,00 h 0,406 mm 515 W/m 5,6 C 18,7 C 11,5 km/h (2 Bft)
19/10/2007 15:00 18,3 C 46 % 1019,0 hPa 0,0 l/m 6,8 km/h (2 Bft) S 1,00 h 0,356 mm 418 W/m 6,4 C 18,3 C 11,4 km/h (2 Bft)
19/10/2007 16:00 17,7 C 50 % 1018,4 hPa 0,0 l/m 7,4 km/h (2 Bft) S-SE 1,00 h 0,279 mm 285 W/m 7,3 C 17,7 C 11,0 km/h (2 Bft)
19/10/2007 17:00 16,7 C 58 % 1018,0 hPa 0,0 l/m 8,0 km/h (2 Bft) S 0,90 h 0,203 mm 129 W/m 8,3 C 16,7 C 11,5 km/h (2 Bft)
19/10/2007 18:00 14,9 C 65 % 1017,9 hPa 0,0 l/m 5,8 km/h (2 Bft) S 0,07 h 0,127 mm 25 W/m 8,5 C 14,9 C 8,2 km/h (2 Bft)
19/10/2007 19:00 13,6 C 72 % 1018,1 hPa 0,0 l/m 3,7 km/h (1 Bft) S-SO 0,00 h 0,051 mm 0 W/m 8,6 C 13,6 C 5,1 km/h (1 Bft)
19/10/2007 20:00 12,9 C 74 % 1018,0 hPa 0,0 l/m 3,5 km/h (1 Bft) N-NO 0,00 h 0,025 mm 0 W/m 8,4 C 12,9 C 5,4 km/h (1 Bft)
19/10/2007 21:00 13,0 C 76 % 1017,9 hPa 0,0 l/m 1,5 km/h (1 Bft) N 0,00 h 0,025 mm 0 W/m 8,8 C 13,0 C 3,7 km/h (1 Bft)
19/10/2007 22:00 12,6 C 77 % 1018,1 hPa 0,0 l/m 2,8 km/h (1 Bft) N 0,00 h 0,025 mm 0 W/m 8,7 C 12,6 C 5,3 km/h (1 Bft)
19/10/2007 23:00 12,3 C 78 % 1018,0 hPa 0,0 l/m 1,2 km/h (1 Bft) N 0,00 h 0,025 mm 0 W/m 8,5 C 12,3 C 3,3 km/h (1 Bft)
20/10/2007 00:00 11,8 C 79 % 1017,9 hPa 0,0 l/m 2,7 km/h (1 Bft) N 0,00 h 0,025 mm 0 W/m 8,4 C 11,8 C 5,4 km/h (1 Bft)
20/10/2007 01:00 11,5 C 80 % 1017,9 hPa 0,0 l/m 3,3 km/h (1 Bft) N-NO 0,00 h 0,025 mm 0 W/m 8,2 C 11,5 C 5,6 km/h (1 Bft)
20/10/2007 02:00 11,0 C 79 % 1017,8 hPa 0,0 l/m 3,5 km/h (1 Bft) N-NO 0,00 h 0,025 mm 0 W/m 7,5 C 11,0 C 5,5 km/h (1 Bft)
20/10/2007 03:00 10,9 C 72 % 1017,4 hPa 0,0 l/m 3,9 km/h (1 Bft) N-NO 0,00 h 0,025 mm 0 W/m 6,1 C 10,9 C 6,0 km/h (2 Bft)
20/10/2007 04:00 10,7 C 67 % 1016,9 hPa 0,0 l/m 5,2 km/h (1 Bft) NO 0,00 h 0,025 mm 0 W/m 4,7 C 10,7 C 7,4 km/h (2 Bft)
20/10/2007 05:00 10,8 C 65 % 1016,5 hPa 0,0 l/m 6,3 km/h (2 Bft) NO 0,00 h 0,051 mm 0 W/m 4,5 C 10,8 C 9,1 km/h (2 Bft)
20/10/2007 06:00 10,5 C 67 % 1016,6 hPa 0,0 l/m 4,4 km/h (1 Bft) NO 0,00 h 0,051 mm 0 W/m 4,6 C 10,5 C 6,7 km/h (2 Bft)
20/10/2007 07:00 9,7 C 66 % 1016,8 hPa 0,0 l/m 2,7 km/h (1 Bft) O-NO 0,00 h 0,051 mm 5 W/m 3,5 C 9,6 C 4,5 km/h (1 Bft)
20/10/2007 08:00 9,0 C 67 % 1017,6 hPa 0,0 l/m 3,1 km/h (1 Bft) N 0,02 h 0,025 mm 30 W/m 3,3 C 8,9 C 5,3 km/h (1 Bft)
20/10/2007 09:00 11,6 C 60 % 1017,7 hPa 0,0 l/m 2,6 km/h (1 Bft) N 0,25 h 0,025 mm 149 W/m 4,2 C 11,5 C 4,9 km/h (1 Bft)
20/10/2007 10:00 15,4 C 49 % 1017,5 hPa 0,0 l/m 4,6 km/h (1 Bft) E-NE 0,83 h 0,102 mm 343 W/m 4,8 C 15,4 C 7,5 km/h (2 Bft)
20/10/2007 11:00 14,9 C 49 % 1018,0 hPa 0,0 l/m 9,0 km/h (2 Bft) E-NE 0,10 h 0,229 mm 232 W/m 4,2 C 14,9 C 13,5 km/h (3 Bft)
20/10/2007 12:00 13,5 C 63 % 1018,2 hPa 0,0 l/m 30,6 km/h (5 Bft) E-NE 0,23 h 0,178 mm 240 W/m 6,5 C 13,5 C 42,4 km/h (6 Bft)
20/10/2007 13:00 14,1 C 53 % 1017,5 hPa 0,0 l/m 35,9 km/h (5 Bft) E-NE 1,00 h 0,279 mm 538 W/m 4,4 C 14,1 C 48,4 km/h (6 Bft)
20/10/2007 14:00 14,0 C 48 % 1017,5 hPa 0,0 l/m 34,1 km/h (5 Bft) E 0,77 h 0,483 mm 430 W/m 2,7 C 14,0 C 47,8 km/h (6 Bft)
20/10/2007 15:00 14,4 C 33 % 1017,3 hPa 0,0 l/m 28,9 km/h (5 Bft) E-NE 1,00 h 0,432 mm 426 W/m -1,8 C 14,4 C 40,1 km/h (6 Bft)
20/10/2007 16:00 13,2 C 31 % 1018,2 hPa 0,0 l/m 26,1 km/h (4 Bft) NE 1,00 h 0,457 mm 305 W/m -3,4 C 13,2 C 37,3 km/h (5 Bft)
20/10/2007 17:00 12,1 C 34 % 1019,2 hPa 0,0 l/m 23,3 km/h (4 Bft) NE 1,00 h 0,356 mm 144 W/m -3,2 C 12,1 C 33,7 km/h (5 Bft)
20/10/2007 18:00 9,8 C 45 % 1020,1 hPa 0,0 l/m 12,5 km/h (3 Bft) E-NE 0,05 h 0,254 mm 17 W/m -1,5 C 9,1 C 17,8 km/h (3 Bft)
20/10/2007 19:00 8,6 C 45 % 1021,0 hPa 0,0 l/m 7,0 km/h (2 Bft) E 0,00 h 0,076 mm 0 W/m -2,5 C 7,6 C 9,7 km/h (2 Bft)
20/10/2007 20:00 8,1 C 42 % 1021,2 hPa 0,0 l/m 1,7 km/h (1 Bft) E-NE 0,00 h 0,051 mm 0 W/m -4,1 C 8,0 C 3,1 km/h (1 Bft)
20/10/2007 21:00 7,8 C 40 % 1020,9 hPa 0,0 l/m 8,0 km/h (2 Bft) O-NO 0,00 h 0,051 mm 0 W/m -5,0 C 6,5 C 10,7 km/h (2 Bft)
20/10/2007 22:00 7,4 C 37 % 1021,0 hPa 0,0 l/m 8,4 km/h (2 Bft) O-NO 0,00 h 0,076 mm 0 W/m -6,2 C 5,9 C 12,0 km/h (2 Bft)
20/10/2007 23:00 7,3 C 31 % 1021,1 hPa 0,0 l/m 11,8 km/h (2 Bft) O-NO 0,00 h 0,076 mm 0 W/m -8,7 C 5,1 C 15,6 km/h (3 Bft)
21/10/2007 00:00 7,0 C 29 % 1021,1 hPa 0,0 l/m 10,2 km/h (2 Bft) O-NO 0,00 h 0,102 mm 0 W/m -9,6 C 5,1 C 14,0 km/h (3 Bft)
21/10/2007 01:00 7,3 C 28 % 1021,0 hPa 0,0 l/m 9,4 km/h (2 Bft) O-NO 0,00 h 0,102 mm 0 W/m -10,2 C 5,5 C 13,8 km/h (3 Bft)
21/10/2007 02:00 7,2 C 28 % 1020,8 hPa 0,0 l/m 11,0 km/h (2 Bft) O-NO 0,00 h 0,102 mm 0 W/m -10,2 C 5,1 C 15,6 km/h (3 Bft)
21/10/2007 03:00 6,4 C 29 % 1020,6 hPa 0,0 l/m 8,4 km/h (2 Bft) O-NO 0,00 h 0,102 mm 0 W/m -10,1 C 4,7 C 12,0 km/h (2 Bft)
21/10/2007 04:00 6,8 C 32 % 1020,4 hPa 0,0 l/m 9,1 km/h (2 Bft) O-NO 0,00 h 0,076 mm 0 W/m -8,9 C 5,0 C 13,1 km/h (3 Bft)
21/10/2007 05:00 6,1 C 34 % 1020,1 hPa 0,0 l/m 8,7 km/h (2 Bft) O-NO 0,00 h 0,076 mm 0 W/m -8,6 C 4,3 C 12,5 km/h (3 Bft)
21/10/2007 06:00 6,4 C 32 % 1020,0 hPa 0,0 l/m 6,2 km/h (2 Bft) O-NO 0,00 h 0,076 mm 0 W/m -9,2 C 5,3 C 9,4 km/h (2 Bft)
21/10/2007 07:00 6,0 C 31 % 1019,8 hPa 0,0 l/m 9,0 km/h (2 Bft) O-NO 0,00 h 0,076 mm 6 W/m -9,7 C 4,1 C 12,6 km/h (3 Bft)
21/10/2007 08:00 7,3 C 30 % 1019,7 hPa 0,0 l/m 10,4 km/h (2 Bft) O-NO 0,95 h 0,076 mm 72 W/m -9,3 C 5,3 C 14,6 km/h (3 Bft)
21/10/2007 09:00 10,2 C 28 % 1019,7 hPa 0,0 l/m 7,1 km/h (2 Bft) O-NO 1,00 h 0,102 mm 226 W/m -7,4 C 9,7 C 9,7 km/h (2 Bft)
21/10/2007 10:00 13,6 C 27 % 1019,4 hPa 0,0 l/m 2,6 km/h (1 Bft) O-NO 1,00 h 0,178 mm 378 W/m -5,0 C 13,6 C 5,2 km/h (1 Bft)
21/10/2007 11:00 14,0 C 25 % 1018,9 hPa 0,0 l/m 9,3 km/h (2 Bft) SO 1,00 h 0,229 mm 493 W/m -5,9 C 14,0 C 13,6 km/h (3 Bft)
21/10/2007 12:00 15,0 C 21 % 1018,5 hPa 0,0 l/m 8,5 km/h (2 Bft) S-SE 1,00 h 0,330 mm 558 W/m -7,4 C 15,0 C 12,8 km/h (3 Bft)
21/10/2007 13:00 15,4 C 23 % 1017,8 hPa 0,0 l/m 11,8 km/h (2 Bft) S-SO 1,00 h 0,381 mm 569 W/m -5,5 C 15,4 C 17,0 km/h (3 Bft)
21/10/2007 14:00 15,5 C 24 % 1016,8 hPa 0,0 l/m 13,8 km/h (3 Bft) S 1,00 h 0,406 mm 527 W/m -5,2 C 15,5 C 19,7 km/h (3 Bft)
21/10/2007 15:00 14,9 C 25 % 1016,0 hPa 0,0 l/m 13,1 km/h (3 Bft) S-SE 1,00 h 0,406 mm 435 W/m -4,7 C 14,9 C 19,0 km/h (3 Bft)
21/10/2007 16:00 14,6 C 27 % 1015,6 hPa 0,0 l/m 9,5 km/h (2 Bft) S-SE 1,00 h 0,356 mm 301 W/m -4,1 C 14,6 C 14,5 km/h (3 Bft)
21/10/2007 17:00 13,9 C 29 % 1015,2 hPa 0,0 l/m 7,2 km/h (2 Bft) S 0,68 h 0,254 mm 125 W/m -4,0 C 13,9 C 10,1 km/h (2 Bft)
21/10/2007 18:00 11,8 C 34 % 1015,4 hPa 0,0 l/m 4,2 km/h (1 Bft) S-SO 0,00 h 0,127 mm 15 W/m -3,8 C 11,8 C 5,7 km/h (1 Bft)
21/10/2007 19:00 10,7 C 38 % 1015,8 hPa 0,0 l/m 5,7 km/h (1 Bft) O-NO 0,00 h 0,051 mm 0 W/m -3,1 C 10,7 C 7,5 km/h (2 Bft)
21/10/2007 20:00 9,9 C 42 % 1015,8 hPa 0,0 l/m 8,5 km/h (2 Bft) O-NO 0,00 h 0,076 mm 0 W/m -2,5 C 8,9 C 11,2 km/h (2 Bft)
21/10/2007 21:00 9,5 C 44 % 1015,6 hPa 0,0 l/m 10,1 km/h (2 Bft) O-NO 0,00 h 0,076 mm 0 W/m -2,2 C 8,0 C 13,6 km/h (3 Bft)
21/10/2007 22:00 9,0 C 46 % 1015,2 hPa 0,0 l/m 11,8 km/h (2 Bft) O-NO 0,00 h 0,076 mm 0 W/m -2,0 C 7,1 C 15,6 km/h (3 Bft)
21/10/2007 23:00 8,8 C 48 % 1014,7 hPa 0,0 l/m 11,8 km/h (2 Bft) O-NO 0,00 h 0,076 mm 0 W/m -1,7 C 6,9 C 16,2 km/h (3 Bft)
Min-Date _ 21/10/07 21/10/07 18/10/07 - 15/10/07 - - - - 21/10/07 21/10/07 15/10/07
_ Min-Heure 07:11 12:20 16:45 - 00:04 - - - - 02:18 07:37 00:18
Minimum _ 5,7 C 19 % 1013,8 hPa - 0,0 km/h (0 Bft) - - - - -10,6 C 3,2 C 0,0 km/h (0 Bft)
Max-Date _ 17/10/07 18/10/07 16/10/07 15/10/07 20/10/07 - 15/10/07 20/10/07 20/10/07 18/10/07 17/10/07 20/10/07
_ Max-Heure 13:30 22:52 11:15 00:00 13:04 - 07:55 14:00 12:57 19:06 13:30 14:10
Maximum _ 21,6 C 89 % 1023,7 hPa 0,0 l/m 48,3 km/h
E-NE (6 Bft)
- 0,02 h 0,483 mm 680 W/m 14,7 C 21,6 C 64,4 km/h
E (8 Bft)
Moyenne _ 14,5 C 63 % 1019,4 hPa #0,0 l/m 6,7 km/h (2 Bft) O-NO #59:49 h #21,344 mm 287 W/m 6,8 C 14,3 C 9,9 km/h (2 Bft)
Roquefort les pins